Time;durP1;ratioP1;P1;durP2;ratioP2;P2;SDS_P1;SDS_P2;PMS_P1;PMS_P2;Temp;Humidity;BMP_temperature;BMP_pressure;BME280_temperature;BME280_humidity;BME280_pressure;Samples;Min_cycle;Max_cycle;Signal;HPM_P1;HPM_P2
2021/06/15 00:01:16;;;;;;;2.53;1.67;;;16.40;99.90;;;;;;5017559;28;20124;-68
2021/06/15 00:03:43;;;;;;;2.70;2.22;;;16.30;99.90;;;;;;5014328;28;20042;-67
2021/06/15 00:06:10;;;;;;;2.75;2.15;;;16.30;99.90;;;;;;5010887;28;20593;-68
2021/06/15 00:08:37;;;;;;;3.67;1.92;;;16.30;99.90;;;;;;5011516;28;20136;-68
2021/06/15 00:11:04;;;;;;;4.75;2.00;;;16.30;99.90;;;;;;5011164;28;21538;-66
2021/06/15 00:13:31;;;;;;;3.60;2.20;;;16.20;99.90;;;;;;5013333;28;20045;-68
2021/06/15 00:15:58;;;;;;;5.78;2.63;;;16.20;99.90;;;;;;5013680;28;20108;-68
2021/06/15 00:18:25;;;;;;;4.28;2.17;;;16.10;99.90;;;;;;5014959;28;20056;-68
2021/06/15 00:20:52;;;;;;;2.83;1.75;;;16.10;99.90;;;;;;5013238;28;20085;-68
2021/06/15 00:23:20;;;;;;;2.83;1.60;;;16.00;99.90;;;;;;5013288;28;20135;-67
2021/06/15 00:25:47;;;;;;;2.40;1.10;;;16.00;99.90;;;;;;5012962;28;20076;-69
2021/06/15 00:28:14;;;;;;;2.13;1.20;;;15.90;99.90;;;;;;5014020;28;20134;-69
2021/06/15 00:30:42;;;;;;;2.17;0.63;;;15.90;99.90;;;;;;5010984;28;20058;-69
2021/06/15 00:33:09;;;;;;;1.27;1.10;;;15.90;99.90;;;;;;5011982;28;20571;-66
2021/06/15 00:35:36;;;;;;;2.40;0.98;;;15.80;99.90;;;;;;5013454;28;21092;-69
2021/06/15 00:38:03;;;;;;;2.38;1.05;;;15.80;99.90;;;;;;5013390;28;20136;-67
2021/06/15 00:40:31;;;;;;;1.60;1.25;;;15.80;99.90;;;;;;5010695;28;20124;-66
2021/06/15 00:42:58;;;;;;;1.77;1.10;;;15.70;99.90;;;;;;5013319;28;20088;-68
2021/06/15 00:45:27;;;;;;;2.78;1.42;;;15.70;99.90;;;;;;5013093;28;20042;-67
2021/06/15 00:47:55;;;;;;;2.92;1.50;;;15.60;99.90;;;;;;5010402;28;20045;-67
2021/06/15 00:50:25;;;;;;;3.08;0.93;;;15.60;99.90;;;;;;5012871;28;20060;-67
2021/06/15 00:52:53;;;;;;;2.80;0.98;;;15.50;99.90;;;;;;5013069;28;20071;-68
2021/06/15 00:55:22;;;;;;;1.35;1.02;;;15.50;99.90;;;;;;5014870;28;20521;-68
2021/06/15 00:57:50;;;;;;;1.95;1.33;;;15.50;99.90;;;;;;5029330;28;20112;-67
2021/06/15 01:00:19;;;;;;;4.65;1.48;;;15.40;99.90;;;;;;5016503;28;20060;-69
2021/06/15 01:02:46;;;;;;;7.28;2.55;;;15.40;99.90;;;;;;5029277;28;20156;-66
2021/06/15 01:05:17;;;;;;;3.75;2.33;;;15.40;99.90;;;;;;5021328;28;20052;-66
2021/06/15 01:08:10;;;;;;;1.80;1.00;;;15.30;99.90;;;;;;5019071;28;20044;-66
2021/06/15 01:10:40;;;;;;;2.30;1.00;;;15.30;99.90;;;;;;5020049;28;20052;-67
2021/06/15 01:13:26;;;;;;;3.10;1.23;;;15.30;99.90;;;;;;5017760;28;20144;-66
2021/06/15 01:16:08;;;;;;;5.10;3.03;;;15.30;99.90;;;;;;5015160;28;20119;-68
2021/06/15 01:18:41;;;;;;;6.53;1.58;;;15.20;99.90;;;;;;5012616;28;20078;-67
2021/06/15 01:21:11;;;;;;;5.82;2.05;;;15.20;99.90;;;;;;5034731;28;20046;-68
2021/06/15 01:23:48;;;;;;;3.03;0.98;;;15.20;99.90;;;;;;5049010;28;20065;-67
2021/06/15 01:26:58;;;;;;;3.63;0.90;;;15.10;99.90;;;;;;5048569;28;20700;-68
2021/06/15 01:29:35;;;;;;;3.08;1.10;;;15.10;99.90;;;;;;5050183;28;20068;-66
2021/06/15 01:32:19;;;;;;;1.90;1.80;;;15.10;99.90;;;;;;5020127;28;20038;-67
2021/06/15 01:34:48;;;;;;;5.18;1.23;;;15.00;99.90;;;;;;5049962;28;20045;-66
2021/06/15 01:37:21;;;;;;;1.88;0.95;;;15.00;99.90;;;;;;5018383;28;20052;-66
2021/06/15 01:40:13;;;;;;;4.38;1.17;;;14.90;99.90;;;;;;5052028;28;20468;-68
2021/06/15 01:42:58;;;;;;;1.50;1.40;;;14.90;99.90;;;;;;5018934;28;20038;-69
2021/06/15 01:45:36;;;;;;;2.67;1.00;;;14.90;99.90;;;;;;5050318;28;20550;-66
2021/06/15 01:48:34;;;;;;;1.87;1.37;;;14.90;99.90;;;;;;5031109;28;20052;-69
2021/06/15 01:51:04;;;;;;;2.45;1.08;;;14.80;99.90;;;;;;5016964;28;20129;-69
2021/06/15 01:53:40;;;;;;;3.63;1.27;;;14.80;99.90;;;;;;5032593;28;20103;-68
2021/06/15 01:56:09;;;;;;;2.50;1.48;;;14.80;99.90;;;;;;5018975;28;20072;-68
2021/06/15 01:58:44;;;;;;;5.72;2.03;;;14.80;99.90;;;;;;5017346;28;20161;-67
2021/06/15 02:01:12;;;;;;;1.95;1.02;;;14.80;99.90;;;;;;5019500;28;20054;-67
2021/06/15 02:03:46;;;;;;;4.60;1.50;;;14.80;99.90;;;;;;5018372;28;20045;-66
2021/06/15 02:06:21;;;;;;;3.53;1.48;;;14.70;99.90;;;;;;5052008;28;20057;-68
2021/06/15 02:08:51;;;;;;;2.05;1.08;;;14.70;99.90;;;;;;5049030;28;20597;-67
2021/06/15 02:11:38;;;;;;;3.47;0.98;;;14.70;99.90;;;;;;5019675;28;20518;-68
2021/06/15 02:14:29;;;;;;;1.80;1.10;;;14.60;99.90;;;;;;5013475;28;20056;-67
2021/06/15 02:17:15;;;;;;;3.13;0.85;;;14.60;99.90;;;;;;5020796;28;20125;-67
2021/06/15 02:20:03;;;;;;;1.42;1.02;;;14.60;99.90;;;;;;5020229;28;20060;-67
2021/06/15 02:22:32;;;;;;;12.18;3.45;;;14.50;99.90;;;;;;5018769;28;20407;-65
2021/06/15 02:25:01;;;;;;;3.30;1.00;;;14.50;99.90;;;;;;5050597;28;20404;-65
2021/06/15 02:27:30;;;;;;;;;;;14.50;99.90;;;;;;5020783;28;20525;-66
2021/06/15 02:29:58;;;;;;;2.28;1.00;;;14.50;99.90;;;;;;5032416;28;20271;-65
2021/06/15 02:32:35;;;;;;;5.25;1.30;;;14.50;99.90;;;;;;5017427;28;20041;-66
2021/06/15 02:35:06;;;;;;;2.05;1.00;;;14.50;99.90;;;;;;5017765;28;20076;-66
2021/06/15 02:38:04;;;;;;;2.35;1.38;;;14.50;99.90;;;;;;5050806;28;20448;-67
2021/06/15 02:40:34;;;;;;;2.72;0.90;;;14.50;99.90;;;;;;5015916;28;20053;-66
2021/06/15 02:43:01;;;;;;;6.15;1.10;;;14.50;99.90;;;;;;5018690;28;20064;-66
2021/06/15 02:45:33;;;;;;;1.55;0.90;;;14.40;99.90;;;;;;5033487;28;20146;-68
2021/06/15 02:48:06;;;;;;;6.05;1.30;;;14.50;99.90;;;;;;5019167;28;20049;-67
2021/06/15 02:50:44;;;;;;;5.43;1.85;;;14.50;99.90;;;;;;5048733;28;20048;-65
2021/06/15 02:53:26;;;;;;;5.97;1.67;;;14.50;99.90;;;;;;5018077;28;20045;-67
2021/06/15 02:56:02;;;;;;;3.60;1.50;;;14.50;99.90;;;;;;5017439;28;20526;-66
2021/06/15 02:58:34;;;;;;;3.88;1.50;;;14.40;99.90;;;;;;5016784;28;20045;-67
2021/06/15 03:01:01;;;;;;;3.42;0.90;;;14.40;99.90;;;;;;5048871;28;20737;-66
2021/06/15 03:03:35;;;;;;;1.95;0.85;;;14.30;99.90;;;;;;5050993;28;20048;-67
2021/06/15 03:06:04;;;;;;;4.75;1.92;;;14.30;99.90;;;;;;5048447;28;20053;-66
2021/06/15 03:08:32;;;;;;;3.67;1.95;;;14.20;99.90;;;;;;5032062;28;20048;-66
2021/06/15 03:11:02;;;;;;;4.22;2.22;;;14.20;99.90;;;;;;5017837;28;20490;-68
2021/06/15 03:13:38;;;;;;;4.18;1.35;;;14.20;99.90;;;;;;5016570;28;20055;-65
2021/06/15 03:16:12;;;;;;;7.88;2.97;;;14.20;99.90;;;;;;5016348;28;20041;-67
2021/06/15 03:19:02;;;;;;;1.52;0.70;;;14.20;99.90;;;;;;5015468;28;21062;-66
2021/06/15 03:21:34;;;;;;;4.55;1.40;;;14.20;99.90;;;;;;5016058;28;20222;-66
2021/06/15 03:24:07;;;;;;;6.72;1.58;;;14.10;99.90;;;;;;5019036;28;20194;-67
2021/06/15 03:26:45;;;;;;;3.15;1.48;;;14.10;99.90;;;;;;5015693;28;20049;-65
2021/06/15 03:29:19;;;;;;;5.18;1.95;;;14.00;99.90;;;;;;5016689;28;20227;-68
2021/06/15 03:31:50;;;;;;;2.97;0.98;;;14.00;99.90;;;;;;5048747;28;20845;-66
2021/06/15 03:34:28;;;;;;;5.78;1.40;;;14.00;99.90;;;;;;5017506;28;20044;-67
2021/06/15 03:36:57;;;;;;;2.63;1.40;;;14.10;99.90;;;;;;5014000;28;20203;-67
2021/06/15 03:39:29;;;;;;;3.42;1.50;;;14.10;99.90;;;;;;5016101;28;20734;-66
2021/06/15 03:41:59;;;;;;;4.47;1.75;;;14.10;99.90;;;;;;5047229;28;20566;-68
2021/06/15 03:44:27;;;;;;;7.30;1.75;;;14.10;99.90;;;;;;5016358;28;20133;-66
2021/06/15 03:46:56;;;;;;;3.13;2.25;;;14.10;99.90;;;;;;5014652;28;20049;-68
2021/06/15 03:49:25;;;;;;;2.55;1.38;;;14.10;99.90;;;;;;5018161;28;20401;-66
2021/06/15 03:51:54;;;;;;;3.00;1.40;;;14.00;99.90;;;;;;5014488;28;20046;-67
2021/06/15 03:54:22;;;;;;;1.10;1.00;;;13.90;99.90;;;;;;5014941;28;20449;-67
2021/06/15 03:56:51;;;;;;;2.60;1.38;;;14.00;99.90;;;;;;5016308;28;20049;-66
2021/06/15 03:59:24;;;;;;;5.20;1.13;;;14.00;99.90;;;;;;5017117;28;20420;-67
2021/06/15 04:01:53;;;;;;;4.25;1.48;;;14.00;99.90;;;;;;5014371;28;20049;-66
2021/06/15 04:04:21;;;;;;;7.75;1.40;;;13.90;99.90;;;;;;5015867;28;20136;-67
2021/06/15 04:06:54;;;;;;;5.15;1.73;;;13.80;99.90;;;;;;5016784;28;20136;-67
2021/06/15 04:09:24;;;;;;;3.15;1.83;;;13.80;99.90;;;;;;5013270;28;20072;-67
2021/06/15 04:11:56;;;;;;;5.88;2.30;;;13.80;99.90;;;;;;5015725;28;20063;-67
2021/06/15 04:14:25;;;;;;;3.70;1.33;;;13.80;99.90;;;;;;5015435;28;20776;-65
2021/06/15 04:16:54;;;;;;;7.00;1.80;;;13.80;99.90;;;;;;5015073;28;20132;-67
2021/06/15 04:19:27;;;;;;;6.25;2.53;;;13.80;99.90;;;;;;5016120;28;20076;-67
2021/06/15 04:21:59;;;;;;;2.67;1.75;;;13.70;99.90;;;;;;5016131;28;20100;-66
2021/06/15 04:24:27;;;;;;;5.03;1.85;;;13.70;99.90;;;;;;5014275;28;20111;-66
2021/06/15 04:26:58;;;;;;;7.75;1.85;;;13.70;99.90;;;;;;5032386;28;20148;-67
2021/06/15 04:29:27;;;;;;;6.53;1.77;;;13.70;99.90;;;;;;5015529;28;20410;-65
2021/06/15 04:32:08;;;;;;;6.72;1.67;;;13.70;99.90;;;;;;5018338;28;20059;-67
2021/06/15 04:34:40;;;;;;;5.65;1.60;;;13.70;99.90;;;;;;5014619;28;21648;-66
2021/06/15 04:37:10;;;;;;;9.43;2.08;;;13.70;99.90;;;;;;5012392;28;20041;-67
2021/06/15 04:39:48;;;;;;;6.70;2.30;;;13.80;99.90;;;;;;5016002;28;20053;-66
2021/06/15 04:42:30;;;;;;;8.80;2.22;;;13.80;99.90;;;;;;5019382;28;20128;-66
2021/06/15 04:44:58;;;;;;;18.85;3.72;;;13.80;99.90;;;;;;5017583;28;20144;-66
2021/06/15 04:47:29;;;;;;;7.75;1.67;;;13.80;99.90;;;;;;5017988;28;20111;-67
2021/06/15 04:50:25;;;;;;;4.38;2.17;;;13.80;99.90;;;;;;5019010;28;20403;-67
2021/06/15 04:52:54;;;;;;;9.40;1.95;;;13.70;99.90;;;;;;5016796;28;20132;-66
2021/06/15 04:55:26;;;;;;;11.13;2.00;;;13.80;99.90;;;;;;5017318;28;20099;-66
2021/06/15 04:57:56;;;;;;;7.82;1.75;;;13.70;99.90;;;;;;5017418;28;20103;-66
2021/06/15 05:00:25;;;;;;;6.23;1.70;;;13.70;99.90;;;;;;5017880;28;20400;-66
2021/06/15 05:02:52;;;;;;;2.67;1.80;;;13.70;99.90;;;;;;5016566;28;20072;-68
2021/06/15 05:05:21;;;;;;;4.80;2.05;;;13.60;99.90;;;;;;5019677;28;20122;-67
2021/06/15 05:07:58;;;;;;;6.30;2.40;;;13.70;99.90;;;;;;5018472;28;20138;-67
2021/06/15 05:10:27;;;;;;;5.13;2.05;;;13.70;99.90;;;;;;5018236;28;20071;-66
2021/06/15 05:12:55;;;;;;;6.97;2.17;;;13.70;99.90;;;;;;5016902;28;20156;-66
2021/06/15 05:15:26;;;;;;;11.80;2.75;;;13.70;99.90;;;;;;5019797;28;20121;-66
2021/06/15 05:17:56;;;;;;;7.80;2.72;;;13.70;99.90;;;;;;5018340;28;20076;-67
2021/06/15 05:20:25;;;;;;;9.68;2.75;;;13.80;99.90;;;;;;5016567;28;20194;-67
2021/06/15 05:23:05;;;;;;;8.98;2.28;;;13.70;99.90;;;;;;5015248;28;20069;-67
2021/06/15 05:25:33;;;;;;;4.63;1.90;;;13.70;99.90;;;;;;5019884;28;20116;-66
2021/06/15 05:28:00;;;;;;;7.38;2.10;;;13.80;99.90;;;;;;5015709;28;20179;-67
2021/06/15 05:30:28;;;;;;;6.22;2.10;;;13.80;99.90;;;;;;5019778;28;20914;-65
2021/06/15 05:32:56;;;;;;;4.93;2.00;;;13.70;99.90;;;;;;5017293;28;20052;-68
2021/06/15 05:35:23;;;;;;;6.35;2.55;;;13.70;99.90;;;;;;5017731;28;20331;-65
2021/06/15 05:37:50;;;;;;;7.80;2.53;;;13.70;99.90;;;;;;5017444;28;20072;-67
2021/06/15 05:40:18;;;;;;;5.95;2.00;;;13.90;99.90;;;;;;5016448;28;20049;-68
2021/06/15 05:42:45;;;;;;;5.45;1.80;;;13.90;99.90;;;;;;5015533;28;20152;-67
2021/06/15 05:45:13;;;;;;;7.55;2.80;;;14.00;99.90;;;;;;5014887;28;20148;-65
2021/06/15 05:47:41;;;;;;;7.90;3.00;;;14.00;99.90;;;;;;5016657;28;20423;-67
2021/06/15 05:50:09;;;;;;;5.05;2.30;;;14.10;99.90;;;;;;5016522;28;20103;-65
2021/06/15 05:52:36;;;;;;;9.02;2.17;;;14.10;99.90;;;;;;5014430;28;20045;-68
2021/06/15 05:55:04;;;;;;;11.10;2.75;;;14.00;99.90;;;;;;5014313;28;20111;-68
2021/06/15 05:57:31;;;;;;;6.43;2.30;;;14.00;99.90;;;;;;5018031;28;20136;-67
2021/06/15 05:59:58;;;;;;;10.13;3.30;;;13.90;99.90;;;;;;5015189;28;21415;-66
2021/06/15 06:02:26;;;;;;;5.82;2.08;;;13.90;99.90;;;;;;5015203;28;20049;-69
2021/06/15 06:10:23;;;;;;;5.47;1.83;;;13.90;99.90;;;;;;5015450;28;20046;-68
2021/06/15 06:12:50;;;;;;;3.47;1.90;;;13.90;99.90;;;;;;5017764;28;20142;-67
2021/06/15 06:15:17;;;;;;;8.55;2.20;;;13.90;99.90;;;;;;5015684;28;20133;-68
2021/06/15 06:17:45;;;;;;;9.85;3.35;;;13.90;99.90;;;;;;5018183;28;20117;-67
2021/06/15 06:20:15;;;;;;;5.15;2.53;;;14.00;99.90;;;;;;5017212;28;20099;-67
2021/06/15 06:22:44;;;;;;;7.85;2.47;;;14.00;99.90;;;;;;5017186;28;20521;-67
2021/06/15 06:25:15;;;;;;;2.67;2.20;;;14.00;99.90;;;;;;5018621;28;20045;-67
2021/06/15 06:27:42;;;;;;;14.32;3.45;;;14.00;99.90;;;;;;5017462;28;20050;-69
2021/06/15 06:30:10;;;;;;;9.85;1.90;;;14.00;99.90;;;;;;5016147;28;20138;-67
2021/06/15 06:32:38;;;;;;;7.25;2.55;;;14.10;99.90;;;;;;5002359;28;20142;-70
2021/06/15 06:35:06;;;;;;;9.43;3.40;;;14.10;99.90;;;;;;5010255;28;20049;-69
2021/06/15 06:37:33;;;;;;;3.90;1.83;;;14.10;99.90;;;;;;5014476;28;20060;-67
2021/06/15 06:40:01;;;;;;;7.85;3.22;;;14.20;99.90;;;;;;5015424;28;20144;-67
2021/06/15 06:42:28;;;;;;;5.97;2.42;;;14.20;99.90;;;;;;5013073;28;20583;-67
2021/06/15 06:44:55;;;;;;;3.00;1.60;;;14.20;99.90;;;;;;5016443;28;20049;-67
2021/06/15 06:47:23;;;;;;;9.05;2.35;;;14.20;99.90;;;;;;5013587;28;20122;-67
2021/06/15 06:49:50;;;;;;;7.78;3.03;;;14.20;99.90;;;;;;5016207;28;20096;-69
2021/06/15 06:52:17;;;;;;;6.47;2.60;;;14.20;99.90;;;;;;5012927;28;20045;-68
2021/06/15 06:54:44;;;;;;;5.88;2.83;;;14.20;99.90;;;;;;5015573;28;21507;-67
2021/06/15 06:57:11;;;;;;;6.03;2.33;;;14.30;99.90;;;;;;5014429;28;20161;-66
2021/06/15 06:59:38;;;;;;;7.30;2.45;;;14.40;99.90;;;;;;5017511;28;20490;-68
2021/06/15 07:02:05;;;;;;;10.02;5.10;;;14.50;99.90;;;;;;5012374;28;20156;-69
2021/06/15 07:04:32;;;;;;;7.18;2.05;;;14.40;99.90;;;;;;5013037;28;20049;-69
2021/06/15 07:07:00;;;;;;;5.82;2.80;;;14.40;99.90;;;;;;5013312;28;20045;-69
2021/06/15 07:09:27;;;;;;;6.10;2.53;;;14.40;99.90;;;;;;5017223;28;20581;-69
2021/06/15 07:11:54;;;;;;;6.03;2.03;;;14.30;99.90;;;;;;5015565;28;20673;-67
2021/06/15 07:14:21;;;;;;;16.55;3.40;;;14.30;99.90;;;;;;5013655;28;20052;-69
2021/06/15 07:16:48;;;;;;;6.93;2.97;;;14.20;99.90;;;;;;5016805;28;20124;-67
2021/06/15 07:19:15;;;;;;;5.82;2.38;;;14.30;99.90;;;;;;5015696;28;20053;-69
2021/06/15 07:21:42;;;;;;;6.13;2.00;;;14.40;99.90;;;;;;5014014;28;20136;-67
2021/06/15 07:24:10;;;;;;;4.50;3.00;;;14.40;99.90;;;;;;5016295;28;20571;-68
2021/06/15 07:26:37;;;;;;;8.18;1.83;;;14.50;99.90;;;;;;5013470;28;20094;-69
2021/06/15 07:29:04;;;;;;;5.22;2.35;;;14.60;99.90;;;;;;5013967;28;20049;-69
2021/06/15 07:31:31;;;;;;;4.03;2.70;;;14.70;99.90;;;;;;5015419;28;20179;-66
2021/06/15 07:33:58;;;;;;;7.07;2.00;;;14.70;99.90;;;;;;5014767;28;20041;-68
2021/06/15 07:36:25;;;;;;;9.02;2.83;;;14.70;99.90;;;;;;5013603;28;20093;-68
2021/06/15 07:38:53;;;;;;;4.65;1.85;;;14.80;99.90;;;;;;5015358;28;20136;-68
2021/06/15 07:41:20;;;;;;;6.22;2.72;;;14.80;99.90;;;;;;5017050;28;20048;-66
2021/06/15 07:43:47;;;;;;;6.80;2.50;;;14.90;99.90;;;;;;5015842;28;20491;-67
2021/06/15 07:46:15;;;;;;;6.80;2.65;;;14.80;99.90;;;;;;5018195;28;20165;-68
2021/06/15 07:48:44;;;;;;;3.83;1.90;;;14.90;99.90;;;;;;5014107;28;20061;-67
2021/06/15 07:51:11;;;;;;;7.72;1.80;;;14.70;99.90;;;;;;5014015;28;20204;-68
2021/06/15 07:53:39;;;;;;;3.78;2.40;;;14.80;99.90;;;;;;5015148;28;20049;-66
2021/06/15 07:56:06;;;;;;;7.45;2.28;;;14.80;99.90;;;;;;5015102;28;20148;-67
2021/06/15 07:58:33;;;;;;;9.88;3.38;;;14.90;99.90;;;;;;5011662;28;20105;-69
2021/06/15 08:01:00;;;;;;;6.10;2.97;;;15.10;99.90;;;;;;5016005;28;20659;-68
2021/06/15 08:03:27;;;;;;;8.38;3.00;;;14.90;99.90;;;;;;5014888;28;20073;-67
2021/06/15 08:05:54;;;;;;;7.63;2.47;;;15.00;99.90;;;;;;5017785;28;20128;-67
2021/06/15 08:08:21;;;;;;;4.15;2.53;;;15.10;99.90;;;;;;5012294;28;20077;-68
2021/06/15 08:10:48;;;;;;;7.78;2.92;;;15.20;99.90;;;;;;5010308;28;20061;-67
2021/06/15 08:13:15;;;;;;;8.90;2.55;;;15.20;99.90;;;;;;5015953;28;20049;-69
2021/06/15 08:15:42;;;;;;;5.40;2.50;;;15.10;99.90;;;;;;5020498;28;20871;-67
2021/06/15 08:18:09;;;;;;;9.20;1.92;;;15.20;99.90;;;;;;5018239;28;20067;-69
2021/06/15 08:20:37;;;;;;;4.82;2.47;;;15.30;99.90;;;;;;5017611;28;21237;-68
2021/06/15 08:23:04;;;;;;;6.85;2.05;;;15.30;99.90;;;;;;5017487;28;20108;-67
2021/06/15 08:25:31;;;;;;;7.97;2.47;;;15.40;99.90;;;;;;5019756;28;20678;-68
2021/06/15 08:27:58;;;;;;;6.50;2.67;;;15.30;99.90;;;;;;5018918;28;20692;-67
2021/06/15 08:30:26;;;;;;;5.15;1.80;;;15.30;99.90;;;;;;5018344;28;20171;-67
2021/06/15 08:32:53;;;;;;;5.38;2.38;;;15.30;99.90;;;;;;5017249;28;20137;-68
2021/06/15 08:35:19;;;;;;;4.05;1.80;;;15.20;99.90;;;;;;5019298;28;20388;-69
2021/06/15 08:37:46;;;;;;;5.68;2.10;;;15.20;99.90;;;;;;5018510;28;20525;-67
2021/06/15 08:40:13;;;;;;;7.05;2.10;;;15.20;99.90;;;;;;5019401;28;20080;-68
2021/06/15 08:42:41;;;;;;;5.07;2.03;;;15.40;99.90;;;;;;5016348;28;20057;-69
2021/06/15 08:45:10;;;;;;;6.78;2.13;;;15.50;99.90;;;;;;5018690;28;20136;-68
2021/06/15 08:47:39;;;;;;;5.68;2.17;;;15.50;99.90;;;;;;5019093;28;20045;-68
2021/06/15 08:50:08;;;;;;;7.53;2.10;;;15.60;99.90;;;;;;5019603;28;20159;-68
2021/06/15 08:52:36;;;;;;;3.97;1.95;;;15.50;99.90;;;;;;5017068;28;20053;-67
2021/06/15 08:55:04;;;;;;;6.28;2.03;;;15.70;99.90;;;;;;5017730;28;20167;-68
2021/06/15 08:57:36;;;;;;;6.55;1.70;;;15.70;99.90;;;;;;5019278;28;20735;-68
2021/06/15 09:00:10;;;;;;;3.83;2.10;;;15.80;99.90;;;;;;5017998;28;20540;-68
2021/06/15 09:02:42;;;;;;;6.20;2.13;;;15.60;99.90;;;;;;5016190;28;20227;-69
2021/06/15 09:05:11;;;;;;;6.15;2.42;;;15.60;99.90;;;;;;5016959;28;20099;-69
2021/06/15 09:08:11;;;;;;;7.65;2.50;;;15.70;99.90;;;;;;5019568;28;20073;-68
2021/06/15 09:10:45;;;;;;;4.72;2.75;;;15.90;99.90;;;;;;5003021;28;20076;-68
2021/06/15 09:13:46;;;;;;;8.13;2.03;;;16.20;99.90;;;;;;5016381;28;20107;-69
2021/06/15 09:16:23;;;;;;;12.18;2.17;;;16.10;99.90;;;;;;5034182;28;20538;-69
2021/06/15 09:18:52;;;;;;;2.95;1.50;;;16.20;99.90;;;;;;5015585;28;20062;-66
2021/06/15 09:21:36;;;;;;;11.45;2.63;;;16.30;99.90;;;;;;5014029;28;20061;-67
2021/06/15 09:24:11;;;;;;;7.20;1.90;;;16.30;99.90;;;;;;5017384;28;20540;-69
2021/06/15 09:26:54;;;;;;;7.28;2.55;;;16.30;99.90;;;;;;5015105;28;20088;-66
2021/06/15 09:29:34;;;;;;;5.72;1.92;;;16.40;99.90;;;;;;5018284;28;20868;-67
2021/06/15 09:32:02;;;;;;;1.85;1.75;;;16.40;99.90;;;;;;5017924;28;20042;-68
2021/06/15 09:34:29;;;;;;;10.35;2.95;;;16.40;99.90;;;;;;5017349;28;20037;-68
2021/06/15 09:36:56;;;;;;;7.85;2.13;;;16.30;99.90;;;;;;5015344;28;20136;-69
2021/06/15 09:39:23;;;;;;;3.97;1.60;;;16.50;99.90;;;;;;5049782;28;20873;-68
2021/06/15 09:41:50;;;;;;;6.25;2.28;;;16.40;99.90;;;;;;5017835;28;20142;-67
2021/06/15 09:44:27;;;;;;;7.43;2.15;;;16.40;99.90;;;;;;5019097;28;20077;-69
2021/06/15 09:47:02;;;;;;;4.60;1.58;;;16.50;99.90;;;;;;5016113;28;20089;-67
2021/06/15 09:49:38;;;;;;;6.85;1.70;;;16.50;99.90;;;;;;5019545;28;20054;-69
2021/06/15 09:52:14;;;;;;;3.22;1.52;;;16.70;99.90;;;;;;5021135;28;20421;-67
2021/06/15 09:54:52;;;;;;;4.82;1.60;;;16.80;99.90;;;;;;5021613;28;20060;-67
2021/06/15 09:57:29;;;;;;;3.22;1.73;;;16.90;99.90;;;;;;5020147;28;20052;-67
2021/06/15 10:00:09;;;;;;;5.00;1.60;;;16.90;99.90;;;;;;5017965;28;20077;-67
2021/06/15 10:02:57;;;;;;;5.60;1.75;;;16.80;99.90;;;;;;5015285;28;20077;-66
2021/06/15 10:05:28;;;;;;;5.05;1.25;;;16.70;99.90;;;;;;5016979;28;20148;-67
2021/06/15 10:08:07;;;;;;;8.00;2.25;;;16.80;99.90;;;;;;5014808;28;20114;-68
2021/06/15 10:10:41;;;;;;;4.65;1.70;;;16.80;99.90;;;;;;5016465;28;20054;-67
2021/06/15 10:13:08;;;;;;;8.65;2.88;;;16.70;99.90;;;;;;5017364;28;20045;-67
2021/06/15 10:15:38;;;;;;;3.28;1.40;;;16.90;99.90;;;;;;5018118;28;20157;-68
2021/06/15 10:18:06;;;;;;;3.55;1.05;;;17.00;99.90;;;;;;5015146;28;20056;-66
2021/06/15 10:20:35;;;;;;;3.90;1.88;;;17.00;99.90;;;;;;5016998;28;20144;-67
2021/06/15 10:23:04;;;;;;;5.55;1.77;;;17.20;99.90;;;;;;5016067;28;20140;-68
2021/06/15 10:25:32;;;;;;;2.33;1.33;;;17.10;99.90;;;;;;5016878;28;20145;-67
2021/06/15 10:28:09;;;;;;;5.40;1.75;;;17.10;99.90;;;;;;5013854;28;20523;-66
2021/06/15 10:30:37;;;;;;;3.75;2.42;;;17.20;99.90;;;;;;5013771;28;20087;-68
2021/06/15 10:33:16;;;;;;;4.28;1.33;;;17.30;99.90;;;;;;5017557;28;20049;-67
2021/06/15 10:35:44;;;;;;;5.53;1.77;;;17.50;99.90;;;;;;5015219;28;20053;-67
2021/06/15 10:38:31;;;;;;;2.30;1.25;;;17.50;99.90;;;;;;5015060;28;20045;-67
2021/06/15 10:41:01;;;;;;;3.38;1.40;;;17.40;99.90;;;;;;5012212;28;20795;-68
2021/06/15 10:43:29;;;;;;;4.68;1.30;;;17.50;99.90;;;;;;5016196;28;20204;-68
2021/06/15 10:46:00;;;;;;;9.00;1.70;;;17.50;99.90;;;;;;5016682;28;20067;-68
2021/06/15 10:48:34;;;;;;;2.00;1.35;;;17.70;99.90;;;;;;5013068;28;20073;-68
2021/06/15 10:51:20;;;;;;;10.05;1.85;;;17.70;99.90;;;;;;5015221;28;20131;-67
2021/06/15 10:53:47;;;;;;;5.38;1.58;;;17.80;99.90;;;;;;5015891;28;20135;-68
2021/06/15 10:56:21;;;;;;;4.32;2.78;;;17.90;99.90;;;;;;5015875;28;20224;-67
2021/06/15 10:58:55;;;;;;;4.80;1.33;;;17.90;99.90;;;;;;5016080;28;20559;-67
2021/06/15 11:01:28;;;;;;;3.10;1.90;;;17.90;99.90;;;;;;5013251;28;21577;-67
2021/06/15 11:03:56;;;;;;;2.72;1.40;;;17.80;99.90;;;;;;5016525;28;20135;-68
2021/06/15 11:06:29;;;;;;;5.53;1.77;;;17.80;99.90;;;;;;5013007;28;20057;-68
2021/06/15 11:09:16;;;;;;;2.40;1.63;;;17.80;99.90;;;;;;5015974;28;20057;-67
2021/06/15 11:11:49;;;;;;;4.68;1.98;;;17.80;99.90;;;;;;5014651;28;20638;-66
2021/06/15 11:14:23;;;;;;;3.97;2.50;;;17.90;99.90;;;;;;5017402;28;20045;-66
2021/06/15 11:16:57;;;;;;;4.95;1.75;;;17.80;99.90;;;;;;5014321;28;20136;-68
2021/06/15 11:19:24;;;;;;;6.30;2.47;;;17.90;99.90;;;;;;5016920;28;20387;-69
2021/06/15 11:21:51;;;;;;;5.43;2.75;;;18.00;99.90;;;;;;5013112;28;20212;-67
2021/06/15 11:24:26;;;;;;;4.70;2.22;;;18.10;99.90;;;;;;5003325;28;20227;-69
2021/06/15 11:26:58;;;;;;;7.95;2.67;;;18.20;99.90;;;;;;5014798;28;20162;-66
2021/06/15 11:29:30;;;;;;;8.13;1.77;;;18.10;99.90;;;;;;5014041;28;20049;-66
2021/06/15 11:32:13;;;;;;;5.70;1.50;;;18.10;99.90;;;;;;5014619;28;20547;-68
2021/06/15 11:35:03;;;;;;;4.40;1.60;;;18.30;99.90;;;;;;5014797;28;20230;-68
2021/06/15 11:37:36;;;;;;;4.55;1.40;;;18.30;99.90;;;;;;5015165;28;20388;-66
2021/06/15 11:40:21;;;;;;;5.25;1.15;;;18.30;99.90;;;;;;5016857;28;20092;-67
2021/06/15 11:42:50;;;;;;;6.65;1.90;;;18.40;99.90;;;;;;5016953;28;20109;-69
2021/06/15 11:45:17;;;;;;;2.53;2.05;;;18.40;99.90;;;;;;5017944;28;20081;-68
2021/06/15 11:47:52;;;;;;;7.35;1.75;;;18.50;99.90;;;;;;5018278;28;20053;-67
2021/06/15 11:50:23;;;;;;;4.78;1.33;;;18.50;99.90;;;;;;5015637;28;20057;-69
2021/06/15 11:53:06;;;;;;;6.03;2.50;;;18.60;99.90;;;;;;5017670;28;20633;-67
2021/06/15 11:55:40;;;;;;;4.53;1.50;;;18.50;99.90;;;;;;5014659;28;20148;-68
2021/06/15 11:58:27;;;;;;;1.88;0.80;;;18.60;99.90;;;;;;5017307;28;20069;-67
2021/06/15 12:01:06;;;;;;;3.42;1.30;;;18.60;99.90;;;;;;5014175;28;20725;-67
2021/06/15 12:03:39;;;;;;;5.70;1.73;;;18.50;99.90;;;;;;5017210;28;20763;-66
2021/06/15 12:06:07;;;;;;;4.45;1.92;;;18.60;99.90;;;;;;5015100;28;20135;-68
2021/06/15 12:08:37;;;;;;;7.68;1.73;;;18.50;99.90;;;;;;5014099;28;20045;-69
2021/06/15 12:11:07;;;;;;;4.18;0.80;;;18.50;99.90;;;;;;5015227;28;20840;-67
2021/06/15 12:13:34;;;;;;;4.10;1.70;;;18.70;99.90;;;;;;5014647;28;20053;-67
2021/06/15 12:16:04;;;;;;;2.22;1.23;;;18.70;99.90;;;;;;5014874;28;20145;-67
2021/06/15 12:18:35;;;;;;;1.67;1.20;;;18.70;99.90;;;;;;5013186;28;20144;-69
2021/06/15 12:21:23;;;;;;;4.90;2.38;;;18.60;99.90;;;;;;5016035;28;20212;-67
2021/06/15 12:23:53;;;;;;;2.05;0.88;;;18.80;99.90;;;;;;5014251;28;20069;-68
2021/06/15 12:26:26;;;;;;;4.38;1.52;;;18.80;99.90;;;;;;5014463;28;20107;-68
2021/06/15 12:28:59;;;;;;;4.30;1.38;;;18.90;99.90;;;;;;5014684;28;20144;-66
2021/06/15 12:31:32;;;;;;;2.60;0.93;;;19.00;99.90;;;;;;5015626;28;20049;-69
2021/06/15 12:34:01;;;;;;;5.30;1.17;;;18.80;99.90;;;;;;5012558;28;20064;-66
2021/06/15 12:36:30;;;;;;;3.10;1.10;;;19.00;99.90;;;;;;5009374;28;20076;-69
2021/06/15 12:39:10;;;;;;;2.95;0.82;;;19.10;99.90;;;;;;5010296;28;20080;-66
2021/06/15 12:41:40;;;;;;;4.78;1.35;;;19.10;99.90;;;;;;5013278;28;20080;-68
2021/06/15 12:44:08;;;;;;;4.45;1.33;;;19.10;99.90;;;;;;5012688;28;20239;-67
2021/06/15 12:46:37;;;;;;;4.47;1.67;;;19.00;99.90;;;;;;5013630;28;20158;-67
2021/06/15 12:49:21;;;;;;;3.53;0.63;;;19.30;99.90;;;;;;5015481;28;20049;-67
2021/06/15 12:51:53;;;;;;;3.70;1.13;;;19.30;99.90;;;;;;5015317;28;20080;-68
2021/06/15 12:54:28;;;;;;;5.30;1.45;;;19.40;99.90;;;;;;5016115;28;20076;-69
2021/06/15 12:57:10;;;;;;;1.58;0.63;;;19.50;99.90;;;;;;5014865;28;20106;-67
2021/06/15 12:59:42;;;;;;;2.28;1.00;;;19.60;99.90;;;;;;5015183;28;20729;-67
2021/06/15 13:02:17;;;;;;;2.28;0.93;;;19.60;99.90;;;;;;5019533;28;20049;-67
2021/06/15 13:05:02;;;;;;;4.40;1.10;;;19.70;99.70;;;;;;5016532;28;20056;-67
2021/06/15 13:07:32;;;;;;;2.60;1.30;;;20.00;99.60;;;;;;5019733;28;20049;-67
2021/06/15 13:10:16;;;;;;;4.32;3.00;;;20.20;99.90;;;;;;5017502;28;20089;-67
2021/06/15 13:12:48;;;;;;;2.33;1.02;;;20.00;99.30;;;;;;5010551;28;20053;-67
2021/06/15 13:15:17;;;;;;;9.63;2.47;;;20.20;99.30;;;;;;5013683;28;20111;-69